sensor_id;sensor_type;location;lat;lon;timestamp;P1;durP1;ratioP1;P2;durP2;ratioP2
15258;SDS011;34462;51.368;12.364;2023-04-28T00:01:17;6.80;;;4.83;;
15258;SDS011;34462;51.368;12.364;2023-04-28T00:03:45;8.27;;;5.83;;
15258;SDS011;34462;51.368;12.364;2023-04-28T00:06:14;7.27;;;5.43;;
15258;SDS011;34462;51.368;12.364;2023-04-28T00:08:44;8.87;;;5.30;;
15258;SDS011;34462;51.368;12.364;2023-04-28T00:11:12;7.73;;;5.40;;
15258;SDS011;34462;51.368;12.364;2023-04-28T00:13:40;6.87;;;5.33;;
15258;SDS011;34462;51.368;12.364;2023-04-28T00:16:08;7.13;;;5.30;;
15258;SDS011;34462;51.368;12.364;2023-04-28T00:18:36;8.43;;;5.33;;
15258;SDS011;34462;51.368;12.364;2023-04-28T00:21:04;7.57;;;5.60;;
15258;SDS011;34462;51.368;12.364;2023-04-28T00:23:35;6.80;;;5.20;;
15258;SDS011;34462;51.368;12.364;2023-04-28T00:26:07;8.83;;;5.60;;
15258;SDS011;34462;51.368;12.364;2023-04-28T00:28:35;7.07;;;5.40;;
15258;SDS011;34462;51.368;12.364;2023-04-28T00:31:08;6.43;;;5.00;;
15258;SDS011;34462;51.368;12.364;2023-04-28T00:33:38;10.37;;;5.67;;
15258;SDS011;34462;51.368;12.364;2023-04-28T00:36:07;6.40;;;5.43;;
15258;SDS011;34462;51.368;12.364;2023-04-28T00:38:36;7.17;;;5.20;;
15258;SDS011;34462;51.368;12.364;2023-04-28T00:41:05;8.07;;;5.43;;
15258;SDS011;34462;51.368;12.364;2023-04-28T00:43:45;9.17;;;5.60;;
15258;SDS011;34462;51.368;12.364;2023-04-28T00:46:17;8.20;;;5.47;;
15258;SDS011;34462;51.368;12.364;2023-04-28T00:48:49;7.40;;;5.10;;
15258;SDS011;34462;51.368;12.364;2023-04-28T00:51:18;6.30;;;5.40;;
15258;SDS011;34462;51.368;12.364;2023-04-28T00:53:46;7.83;;;5.63;;
15258;SDS011;34462;51.368;12.364;2023-04-28T00:56:16;9.00;;;5.60;;
15258;SDS011;34462;51.368;12.364;2023-04-28T00:58:44;6.63;;;5.23;;
15258;SDS011;34462;51.368;12.364;2023-04-28T01:01:13;7.43;;;5.40;;
15258;SDS011;34462;51.368;12.364;2023-04-28T01:03:42;5.93;;;4.83;;
15258;SDS011;34462;51.368;12.364;2023-04-28T01:06:10;7.93;;;5.53;;
15258;SDS011;34462;51.368;12.364;2023-04-28T01:08:41;7.50;;;5.63;;
15258;SDS011;34462;51.368;12.364;2023-04-28T01:11:10;7.87;;;5.77;;
15258;SDS011;34462;51.368;12.364;2023-04-28T01:13:40;7.57;;;5.40;;
15258;SDS011;34462;51.368;12.364;2023-04-28T01:16:08;8.43;;;6.20;;
15258;SDS011;34462;51.368;12.364;2023-04-28T01:18:37;6.40;;;5.67;;
15258;SDS011;34462;51.368;12.364;2023-04-28T01:21:13;8.63;;;5.97;;
15258;SDS011;34462;51.368;12.364;2023-04-28T01:23:45;7.17;;;5.60;;
15258;SDS011;34462;51.368;12.364;2023-04-28T01:26:14;8.73;;;6.37;;
15258;SDS011;34462;51.368;12.364;2023-04-28T01:28:45;7.80;;;5.83;;
15258;SDS011;34462;51.368;12.364;2023-04-28T01:31:14;7.90;;;6.00;;
15258;SDS011;34462;51.368;12.364;2023-04-28T01:33:42;11.83;;;6.40;;
15258;SDS011;34462;51.368;12.364;2023-04-28T01:36:10;8.13;;;5.80;;
15258;SDS011;34462;51.368;12.364;2023-04-28T01:38:38;6.87;;;6.03;;
15258;SDS011;34462;51.368;12.364;2023-04-28T01:41:08;8.67;;;6.00;;
15258;SDS011;34462;51.368;12.364;2023-04-28T01:43:36;7.97;;;6.17;;
15258;SDS011;34462;51.368;12.364;2023-04-28T01:46:04;8.27;;;5.90;;
15258;SDS011;34462;51.368;12.364;2023-04-28T01:48:32;8.27;;;6.20;;
15258;SDS011;34462;51.368;12.364;2023-04-28T01:51:01;7.30;;;6.47;;
15258;SDS011;34462;51.368;12.364;2023-04-28T01:53:29;8.10;;;6.03;;
15258;SDS011;34462;51.368;12.364;2023-04-28T01:55:57;9.30;;;6.23;;
15258;SDS011;34462;51.368;12.364;2023-04-28T01:58:27;8.33;;;6.07;;
15258;SDS011;34462;51.368;12.364;2023-04-28T02:00:55;8.20;;;6.30;;
15258;SDS011;34462;51.368;12.364;2023-04-28T02:03:23;9.20;;;7.20;;
15258;SDS011;34462;51.368;12.364;2023-04-28T02:05:51;9.43;;;5.97;;
15258;SDS011;34462;51.368;12.364;2023-04-28T02:08:20;7.33;;;6.10;;
15258;SDS011;34462;51.368;12.364;2023-04-28T02:10:48;8.77;;;6.50;;
15258;SDS011;34462;51.368;12.364;2023-04-28T02:13:16;9.23;;;6.70;;
15258;SDS011;34462;51.368;12.364;2023-04-28T02:15:46;9.10;;;6.70;;
15258;SDS011;34462;51.368;12.364;2023-04-28T02:18:14;8.80;;;6.27;;
15258;SDS011;34462;51.368;12.364;2023-04-28T02:20:42;9.17;;;7.37;;
15258;SDS011;34462;51.368;12.364;2023-04-28T02:23:10;7.87;;;6.53;;
15258;SDS011;34462;51.368;12.364;2023-04-28T02:25:38;9.50;;;7.13;;
15258;SDS011;34462;51.368;12.364;2023-04-28T02:28:07;8.00;;;6.73;;
15258;SDS011;34462;51.368;12.364;2023-04-28T02:30:35;9.27;;;7.40;;
15258;SDS011;34462;51.368;12.364;2023-04-28T02:33:04;9.10;;;7.33;;
15258;SDS011;34462;51.368;12.364;2023-04-28T02:35:32;10.13;;;7.40;;
15258;SDS011;34462;51.368;12.364;2023-04-28T02:38:01;11.37;;;7.70;;
15258;SDS011;34462;51.368;12.364;2023-04-28T02:40:29;10.63;;;7.90;;
15258;SDS011;34462;51.368;12.364;2023-04-28T02:42:57;10.60;;;7.70;;
15258;SDS011;34462;51.368;12.364;2023-04-28T02:45:26;9.83;;;8.00;;
15258;SDS011;34462;51.368;12.364;2023-04-28T02:47:54;10.60;;;7.70;;
15258;SDS011;34462;51.368;12.364;2023-04-28T02:50:23;9.27;;;7.77;;
15258;SDS011;34462;51.368;12.364;2023-04-28T02:52:52;10.57;;;7.50;;
15258;SDS011;34462;51.368;12.364;2023-04-28T02:55:21;10.33;;;8.17;;
15258;SDS011;34462;51.368;12.364;2023-04-28T02:57:49;10.17;;;8.20;;
15258;SDS011;34462;51.368;12.364;2023-04-28T03:00:18;9.17;;;8.27;;
15258;SDS011;34462;51.368;12.364;2023-04-28T03:02:46;10.87;;;8.33;;
15258;SDS011;34462;51.368;12.364;2023-04-28T03:05:15;12.07;;;8.07;;
15258;SDS011;34462;51.368;12.364;2023-04-28T03:07:47;9.53;;;7.97;;
15258;SDS011;34462;51.368;12.364;2023-04-28T03:10:15;11.93;;;8.77;;
15258;SDS011;34462;51.368;12.364;2023-04-28T03:12:43;9.20;;;8.10;;
15258;SDS011;34462;51.368;12.364;2023-04-28T03:15:12;9.90;;;8.33;;
15258;SDS011;34462;51.368;12.364;2023-04-28T03:17:43;11.07;;;8.30;;
15258;SDS011;34462;51.368;12.364;2023-04-28T03:20:12;12.60;;;9.03;;
15258;SDS011;34462;51.368;12.364;2023-04-28T03:22:40;12.47;;;9.10;;
15258;SDS011;34462;51.368;12.364;2023-04-28T03:25:10;12.27;;;9.30;;
15258;SDS011;34462;51.368;12.364;2023-04-28T03:27:38;11.90;;;9.13;;
15258;SDS011;34462;51.368;12.364;2023-04-28T03:30:06;12.73;;;10.20;;
15258;SDS011;34462;51.368;12.364;2023-04-28T03:32:35;11.17;;;9.37;;
15258;SDS011;34462;51.368;12.364;2023-04-28T03:35:04;13.73;;;8.73;;
15258;SDS011;34462;51.368;12.364;2023-04-28T03:37:32;10.50;;;8.83;;
15258;SDS011;34462;51.368;12.364;2023-04-28T03:40:04;10.87;;;9.37;;
15258;SDS011;34462;51.368;12.364;2023-04-28T03:42:35;13.43;;;10.53;;
15258;SDS011;34462;51.368;12.364;2023-04-28T03:45:04;12.03;;;9.73;;
15258;SDS011;34462;51.368;12.364;2023-04-28T03:47:33;10.80;;;9.67;;
15258;SDS011;34462;51.368;12.364;2023-04-28T03:50:02;11.63;;;9.80;;
15258;SDS011;34462;51.368;12.364;2023-04-28T03:52:31;12.03;;;9.77;;
15258;SDS011;34462;51.368;12.364;2023-04-28T03:54:59;13.70;;;10.90;;
15258;SDS011;34462;51.368;12.364;2023-04-28T03:57:27;10.50;;;9.40;;
15258;SDS011;34462;51.368;12.364;2023-04-28T03:59:57;13.83;;;10.80;;
15258;SDS011;34462;51.368;12.364;2023-04-28T04:02:25;11.83;;;10.60;;
15258;SDS011;34462;51.368;12.364;2023-04-28T04:04:54;13.30;;;10.07;;
15258;SDS011;34462;51.368;12.364;2023-04-28T04:07:22;12.97;;;9.70;;
15258;SDS011;34462;51.368;12.364;2023-04-28T04:09:50;11.40;;;9.17;;
15258;SDS011;34462;51.368;12.364;2023-04-28T04:12:19;13.50;;;9.43;;
15258;SDS011;34462;51.368;12.364;2023-04-28T04:14:47;13.03;;;9.63;;
15258;SDS011;34462;51.368;12.364;2023-04-28T04:17:19;12.87;;;9.80;;
15258;SDS011;34462;51.368;12.364;2023-04-28T04:19:47;13.23;;;10.80;;
15258;SDS011;34462;51.368;12.364;2023-04-28T04:22:16;14.70;;;10.30;;
15258;SDS011;34462;51.368;12.364;2023-04-28T04:24:44;14.77;;;10.30;;
15258;SDS011;34462;51.368;12.364;2023-04-28T04:27:12;14.00;;;10.43;;
15258;SDS011;34462;51.368;12.364;2023-04-28T04:29:45;11.70;;;10.40;;
15258;SDS011;34462;51.368;12.364;2023-04-28T04:32:14;11.63;;;10.00;;
15258;SDS011;34462;51.368;12.364;2023-04-28T04:34:45;13.30;;;10.53;;
15258;SDS011;34462;51.368;12.364;2023-04-28T04:37:13;12.67;;;9.97;;
15258;SDS011;34462;51.368;12.364;2023-04-28T04:39:41;13.50;;;9.73;;
15258;SDS011;34462;51.368;12.364;2023-04-28T04:42:09;11.37;;;10.10;;
15258;SDS011;34462;51.368;12.364;2023-04-28T04:44:50;11.63;;;10.10;;
15258;SDS011;34462;51.368;12.364;2023-04-28T04:47:23;11.77;;;10.13;;
15258;SDS011;34462;51.368;12.364;2023-04-28T04:49:51;13.03;;;10.00;;
15258;SDS011;34462;51.368;12.364;2023-04-28T04:52:21;11.40;;;10.10;;
15258;SDS011;34462;51.368;12.364;2023-04-28T04:54:50;11.90;;;10.00;;
15258;SDS011;34462;51.368;12.364;2023-04-28T04:57:18;12.20;;;10.13;;
15258;SDS011;34462;51.368;12.364;2023-04-28T04:59:46;11.73;;;10.20;;
15258;SDS011;34462;51.368;12.364;2023-04-28T05:02:15;12.03;;;9.80;;
15258;SDS011;34462;51.368;12.364;2023-04-28T05:04:48;11.30;;;10.10;;
15258;SDS011;34462;51.368;12.364;2023-04-28T05:07:16;11.53;;;10.23;;
15258;SDS011;34462;51.368;12.364;2023-04-28T05:09:44;12.27;;;10.30;;
15258;SDS011;34462;51.368;12.364;2023-04-28T05:12:12;11.27;;;10.03;;
15258;SDS011;34462;51.368;12.364;2023-04-28T05:14:40;12.27;;;10.23;;
15258;SDS011;34462;51.368;12.364;2023-04-28T05:17:09;13.03;;;11.10;;
15258;SDS011;34462;51.368;12.364;2023-04-28T05:19:37;13.47;;;11.00;;
15258;SDS011;34462;51.368;12.364;2023-04-28T05:22:06;12.87;;;10.13;;
15258;SDS011;34462;51.368;12.364;2023-04-28T05:24:35;11.53;;;10.30;;
15258;SDS011;34462;51.368;12.364;2023-04-28T05:27:03;14.73;;;10.37;;
15258;SDS011;34462;51.368;12.364;2023-04-28T05:29:31;12.27;;;9.83;;
15258;SDS011;34462;51.368;12.364;2023-04-28T05:31:59;13.30;;;10.40;;
15258;SDS011;34462;51.368;12.364;2023-04-28T05:34:28;11.13;;;9.40;;
15258;SDS011;34462;51.368;12.364;2023-04-28T05:36:56;11.93;;;10.13;;
15258;SDS011;34462;51.368;12.364;2023-04-28T05:39:26;14.17;;;9.90;;
15258;SDS011;34462;51.368;12.364;2023-04-28T05:41:54;10.83;;;9.67;;
15258;SDS011;34462;51.368;12.364;2023-04-28T05:44:23;12.23;;;10.13;;
15258;SDS011;34462;51.368;12.364;2023-04-28T05:46:52;13.97;;;10.57;;
15258;SDS011;34462;51.368;12.364;2023-04-28T05:49:20;11.23;;;10.03;;
15258;SDS011;34462;51.368;12.364;2023-04-28T05:51:49;11.13;;;9.07;;
15258;SDS011;34462;51.368;12.364;2023-04-28T05:54:17;14.73;;;9.50;;
15258;SDS011;34462;51.368;12.364;2023-04-28T05:56:46;13.47;;;10.10;;
15258;SDS011;34462;51.368;12.364;2023-04-28T05:59:15;10.57;;;9.47;;
15258;SDS011;34462;51.368;12.364;2023-04-28T06:01:43;10.83;;;9.73;;
15258;SDS011;34462;51.368;12.364;2023-04-28T06:04:11;10.33;;;8.67;;
15258;SDS011;34462;51.368;12.364;2023-04-28T06:06:41;11.70;;;9.00;;
15258;SDS011;34462;51.368;12.364;2023-04-28T06:09:09;11.33;;;9.53;;
15258;SDS011;34462;51.368;12.364;2023-04-28T06:11:37;11.00;;;9.67;;
15258;SDS011;34462;51.368;12.364;2023-04-28T06:14:07;11.70;;;9.73;;
15258;SDS011;34462;51.368;12.364;2023-04-28T06:16:35;12.97;;;9.60;;
15258;SDS011;34462;51.368;12.364;2023-04-28T06:19:03;13.30;;;9.17;;
15258;SDS011;34462;51.368;12.364;2023-04-28T06:21:31;12.17;;;9.40;;
15258;SDS011;34462;51.368;12.364;2023-04-28T06:23:59;12.30;;;9.47;;
15258;SDS011;34462;51.368;12.364;2023-04-28T06:26:27;10.87;;;9.57;;
15258;SDS011;34462;51.368;12.364;2023-04-28T06:28:56;11.37;;;8.87;;
15258;SDS011;34462;51.368;12.364;2023-04-28T06:31:25;9.60;;;8.50;;
15258;SDS011;34462;51.368;12.364;2023-04-28T06:33:57;13.17;;;9.83;;
15258;SDS011;34462;51.368;12.364;2023-04-28T06:36:27;11.23;;;9.67;;
15258;SDS011;34462;51.368;12.364;2023-04-28T06:38:59;10.23;;;8.53;;
15258;SDS011;34462;51.368;12.364;2023-04-28T06:41:27;12.50;;;9.00;;
15258;SDS011;34462;51.368;12.364;2023-04-28T06:43:56;10.47;;;8.20;;
15258;SDS011;34462;51.368;12.364;2023-04-28T06:46:27;9.80;;;7.93;;
15258;SDS011;34462;51.368;12.364;2023-04-28T06:48:58;10.07;;;8.27;;
15258;SDS011;34462;51.368;12.364;2023-04-28T06:51:26;13.30;;;9.07;;
15258;SDS011;34462;51.368;12.364;2023-04-28T06:53:59;10.67;;;7.93;;
15258;SDS011;34462;51.368;12.364;2023-04-28T06:56:27;9.57;;;8.47;;
15258;SDS011;34462;51.368;12.364;2023-04-28T06:58:57;11.00;;;9.23;;
15258;SDS011;34462;51.368;12.364;2023-04-28T07:01:27;12.30;;;8.30;;
15258;SDS011;34462;51.368;12.364;2023-04-28T07:03:58;9.93;;;8.90;;
15258;SDS011;34462;51.368;12.364;2023-04-28T07:06:27;10.80;;;8.87;;
15258;SDS011;34462;51.368;12.364;2023-04-28T07:09:01;13.97;;;9.83;;
15258;SDS011;34462;51.368;12.364;2023-04-28T07:11:30;9.43;;;8.27;;
15258;SDS011;34462;51.368;12.364;2023-04-28T07:13:58;12.25;;;8.60;;
15258;SDS011;34462;51.368;12.364;2023-04-28T07:16:28;9.93;;;8.10;;
15258;SDS011;34462;51.368;12.364;2023-04-28T07:18:58;11.77;;;8.83;;
15258;SDS011;34462;51.368;12.364;2023-04-28T07:21:26;10.27;;;8.70;;
15258;SDS011;34462;51.368;12.364;2023-04-28T07:23:56;9.90;;;8.50;;
15258;SDS011;34462;51.368;12.364;2023-04-28T07:26:26;12.33;;;8.73;;
15258;SDS011;34462;51.368;12.364;2023-04-28T07:28:55;10.17;;;8.73;;
15258;SDS011;34462;51.368;12.364;2023-04-28T07:31:23;9.57;;;7.97;;
15258;SDS011;34462;51.368;12.364;2023-04-28T07:33:53;9.37;;;8.20;;
15258;SDS011;34462;51.368;12.364;2023-04-28T07:36:21;10.25;;;8.88;;
15258;SDS011;34462;51.368;12.364;2023-04-28T07:38:49;12.35;;;8.40;;
15258;SDS011;34462;51.368;12.364;2023-04-28T07:41:18;9.90;;;8.40;;
15258;SDS011;34462;51.368;12.364;2023-04-28T07:43:46;10.25;;;8.50;;
15258;SDS011;34462;51.368;12.364;2023-04-28T07:46:15;10.68;;;8.20;;
15258;SDS011;34462;51.368;12.364;2023-04-28T07:48:46;13.02;;;8.50;;
15258;SDS011;34462;51.368;12.364;2023-04-28T07:51:15;10.10;;;8.88;;
15258;SDS011;34462;51.368;12.364;2023-04-28T07:53:44;11.18;;;8.30;;
15258;SDS011;34462;51.368;12.364;2023-04-28T07:56:12;10.80;;;8.50;;
15258;SDS011;34462;51.368;12.364;2023-04-28T07:58:45;12.68;;;8.10;;
15258;SDS011;34462;51.368;12.364;2023-04-28T08:01:13;12.98;;;8.57;;
15258;SDS011;34462;51.368;12.364;2023-04-28T08:03:42;10.82;;;7.95;;
15258;SDS011;34462;51.368;12.364;2023-04-28T08:06:10;13.15;;;7.95;;
15258;SDS011;34462;51.368;12.364;2023-04-28T08:08:43;10.63;;;8.25;;
15258;SDS011;34462;51.368;12.364;2023-04-28T08:11:11;10.02;;;7.88;;
15258;SDS011;34462;51.368;12.364;2023-04-28T08:13:39;14.07;;;9.10;;
15258;SDS011;34462;51.368;12.364;2023-04-28T08:16:07;11.15;;;7.70;;
15258;SDS011;34462;51.368;12.364;2023-04-28T08:18:35;11.45;;;7.95;;
15258;SDS011;34462;51.368;12.364;2023-04-28T08:21:05;10.88;;;8.02;;
15258;SDS011;34462;51.368;12.364;2023-04-28T08:23:33;9.55;;;7.90;;
15258;SDS011;34462;51.368;12.364;2023-04-28T08:26:03;10.75;;;7.75;;
15258;SDS011;34462;51.368;12.364;2023-04-28T08:28:31;9.00;;;7.20;;
15258;SDS011;34462;51.368;12.364;2023-04-28T08:30:59;9.48;;;7.65;;
15258;SDS011;34462;51.368;12.364;2023-04-28T08:33:28;10.90;;;7.32;;
15258;SDS011;34462;51.368;12.364;2023-04-28T08:35:56;9.27;;;7.07;;
15258;SDS011;34462;51.368;12.364;2023-04-28T08:38:25;9.90;;;6.68;;
15258;SDS011;34462;51.368;12.364;2023-04-28T08:40:53;11.05;;;6.47;;
15258;SDS011;34462;51.368;12.364;2023-04-28T08:43:28;6.68;;;5.90;;
15258;SDS011;34462;51.368;12.364;2023-04-28T08:45:59;8.43;;;6.10;;
15258;SDS011;34462;51.368;12.364;2023-04-28T08:48:37;9.70;;;5.85;;
15258;SDS011;34462;51.368;12.364;2023-04-28T08:51:08;7.35;;;5.68;;
15258;SDS011;34462;51.368;12.364;2023-04-28T08:53:42;10.77;;;6.75;;
15258;SDS011;34462;51.368;12.364;2023-04-28T08:56:19;7.40;;;5.80;;
15258;SDS011;34462;51.368;12.364;2023-04-28T08:58:52;7.18;;;6.30;;
15258;SDS011;34462;51.368;12.364;2023-04-28T09:01:21;9.23;;;6.70;;
15258;SDS011;34462;51.368;12.364;2023-04-28T09:03:50;9.13;;;6.25;;
15258;SDS011;34462;51.368;12.364;2023-04-28T09:06:21;8.20;;;6.22;;
15258;SDS011;34462;51.368;12.364;2023-04-28T09:08:49;8.55;;;6.40;;
15258;SDS011;34462;51.368;12.364;2023-04-28T09:11:17;10.90;;;7.30;;
15258;SDS011;34462;51.368;12.364;2023-04-28T09:13:46;9.30;;;6.63;;
15258;SDS011;34462;51.368;12.364;2023-04-28T09:16:15;7.65;;;6.22;;
15258;SDS011;34462;51.368;12.364;2023-04-28T09:18:54;7.45;;;6.53;;
15258;SDS011;34462;51.368;12.364;2023-04-28T09:21:26;11.10;;;6.60;;
15258;SDS011;34462;51.368;12.364;2023-04-28T09:23:54;9.75;;;6.90;;
15258;SDS011;34462;51.368;12.364;2023-04-28T09:26:22;10.25;;;6.50;;
15258;SDS011;34462;51.368;12.364;2023-04-28T09:28:50;10.35;;;7.78;;
15258;SDS011;34462;51.368;12.364;2023-04-28T09:31:24;10.32;;;7.50;;
15258;SDS011;34462;51.368;12.364;2023-04-28T09:33:56;8.35;;;7.55;;
15258;SDS011;34462;51.368;12.364;2023-04-28T09:36:25;8.25;;;7.30;;
15258;SDS011;34462;51.368;12.364;2023-04-28T09:38:56;9.75;;;7.90;;
15258;SDS011;34462;51.368;12.364;2023-04-28T09:41:34;9.93;;;8.20;;
15258;SDS011;34462;51.368;12.364;2023-04-28T09:44:17;9.45;;;7.10;;
15258;SDS011;34462;51.368;12.364;2023-04-28T09:46:48;9.88;;;7.82;;
15258;SDS011;34462;51.368;12.364;2023-04-28T09:49:16;8.60;;;7.63;;
15258;SDS011;34462;51.368;12.364;2023-04-28T09:51:44;11.27;;;8.30;;
15258;SDS011;34462;51.368;12.364;2023-04-28T09:54:12;10.55;;;8.50;;
15258;SDS011;34462;51.368;12.364;2023-04-28T09:56:42;9.82;;;8.20;;
15258;SDS011;34462;51.368;12.364;2023-04-28T09:59:13;14.00;;;8.52;;
15258;SDS011;34462;51.368;12.364;2023-04-28T10:01:48;9.15;;;8.20;;
15258;SDS011;34462;51.368;12.364;2023-04-28T10:04:16;8.52;;;7.72;;
15258;SDS011;34462;51.368;12.364;2023-04-28T10:06:45;10.23;;;8.38;;
15258;SDS011;34462;51.368;12.364;2023-04-28T10:09:14;10.43;;;9.32;;
15258;SDS011;34462;51.368;12.364;2023-04-28T10:11:43;13.15;;;9.23;;
15258;SDS011;34462;51.368;12.364;2023-04-28T10:14:11;14.50;;;11.02;;
15258;SDS011;34462;51.368;12.364;2023-04-28T10:16:40;11.65;;;9.02;;
15258;SDS011;34462;51.368;12.364;2023-04-28T10:19:10;12.13;;;8.60;;
15258;SDS011;34462;51.368;12.364;2023-04-28T10:21:40;9.35;;;8.07;;
15258;SDS011;34462;51.368;12.364;2023-04-28T10:24:22;9.82;;;8.82;;
15258;SDS011;34462;51.368;12.364;2023-04-28T10:27:06;10.65;;;8.75;;
15258;SDS011;34462;51.368;12.364;2023-04-28T10:29:36;10.60;;;8.40;;
15258;SDS011;34462;51.368;12.364;2023-04-28T10:32:17;11.38;;;8.77;;
15258;SDS011;34462;51.368;12.364;2023-04-28T10:34:50;10.25;;;9.15;;
15258;SDS011;34462;51.368;12.364;2023-04-28T10:37:18;10.30;;;8.90;;
15258;SDS011;34462;51.368;12.364;2023-04-28T10:40:32;8.98;;;8.13;;
15258;SDS011;34462;51.368;12.364;2023-04-28T10:43:02;12.70;;;9.02;;
15258;SDS011;34462;51.368;12.364;2023-04-28T10:48:53;10.27;;;8.98;;
15258;SDS011;34462;51.368;12.364;2023-04-28T10:51:28;11.93;;;8.75;;
15258;SDS011;34462;51.368;12.364;2023-04-28T10:54:08;12.55;;;9.55;;
15258;SDS011;34462;51.368;12.364;2023-04-28T10:59:48;10.27;;;8.88;;
15258;SDS011;34462;51.368;12.364;2023-04-28T11:02:36;11.52;;;9.07;;
15258;SDS011;34462;51.368;12.364;2023-04-28T11:05:11;11.35;;;9.55;;
15258;SDS011;34462;51.368;12.364;2023-04-28T11:11:10;10.55;;;9.50;;
15258;SDS011;34462;51.368;12.364;2023-04-28T11:13:43;10.13;;;9.13;;
15258;SDS011;34462;51.368;12.364;2023-04-28T11:16:13;11.70;;;8.98;;
15258;SDS011;34462;51.368;12.364;2023-04-28T11:21:30;9.70;;;8.70;;
15258;SDS011;34462;51.368;12.364;2023-04-28T11:24:06;11.03;;;9.30;;
15258;SDS011;34462;51.368;12.364;2023-04-28T11:26:36;10.90;;;9.32;;
15258;SDS011;34462;51.368;12.364;2023-04-28T11:29:05;10.95;;;9.50;;
15258;SDS011;34462;51.368;12.364;2023-04-28T11:31:33;9.52;;;8.52;;
15258;SDS011;34462;51.368;12.364;2023-04-28T11:34:02;9.73;;;8.45;;
15258;SDS011;34462;51.368;12.364;2023-04-28T11:36:33;8.98;;;7.82;;
15258;SDS011;34462;51.368;12.364;2023-04-28T11:39:05;8.35;;;6.93;;
15258;SDS011;34462;51.368;12.364;2023-04-28T11:41:35;12.60;;;7.53;;
15258;SDS011;34462;51.368;12.364;2023-04-28T11:44:09;8.85;;;7.03;;
15258;SDS011;34462;51.368;12.364;2023-04-28T11:46:46;10.00;;;7.93;;
15258;SDS011;34462;51.368;12.364;2023-04-28T11:49:18;9.90;;;8.50;;
15258;SDS011;34462;51.368;12.364;2023-04-28T11:51:50;10.00;;;8.27;;
15258;SDS011;34462;51.368;12.364;2023-04-28T11:54:20;10.35;;;8.48;;
15258;SDS011;34462;51.368;12.364;2023-04-28T11:56:50;9.02;;;8.13;;
15258;SDS011;34462;51.368;12.364;2023-04-28T11:59:22;10.73;;;8.35;;
15258;SDS011;34462;51.368;12.364;2023-04-28T12:01:53;9.13;;;8.13;;
15258;SDS011;34462;51.368;12.364;2023-04-28T12:04:27;10.88;;;7.85;;
15258;SDS011;34462;51.368;12.364;2023-04-28T12:07:02;9.95;;;8.57;;
15258;SDS011;34462;51.368;12.364;2023-04-28T12:09:34;9.88;;;8.27;;
15258;SDS011;34462;51.368;12.364;2023-04-28T12:12:05;9.40;;;7.82;;
15258;SDS011;34462;51.368;12.364;2023-04-28T12:14:52;7.95;;;7.18;;
15258;SDS011;34462;51.368;12.364;2023-04-28T12:17:23;10.13;;;7.85;;
15258;SDS011;34462;51.368;12.364;2023-04-28T12:19:52;8.73;;;7.35;;
15258;SDS011;34462;51.368;12.364;2023-04-28T12:22:21;9.77;;;7.72;;
15258;SDS011;34462;51.368;12.364;2023-04-28T12:25:04;9.50;;;7.10;;
15258;SDS011;34462;51.368;12.364;2023-04-28T12:27:39;8.25;;;7.40;;
15258;SDS011;34462;51.368;12.364;2023-04-28T12:30:25;9.25;;;7.72;;
15258;SDS011;34462;51.368;12.364;2023-04-28T12:32:55;8.30;;;7.38;;
15258;SDS011;34462;51.368;12.364;2023-04-28T12:35:23;9.52;;;7.30;;
15258;SDS011;34462;51.368;12.364;2023-04-28T12:37:53;8.13;;;7.35;;
15258;SDS011;34462;51.368;12.364;2023-04-28T12:40:25;7.80;;;7.07;;
15258;SDS011;34462;51.368;12.364;2023-04-28T12:42:53;8.07;;;7.28;;
15258;SDS011;34462;51.368;12.364;2023-04-28T12:45:22;8.05;;;7.25;;
15258;SDS011;34462;51.368;12.364;2023-04-28T12:47:50;9.43;;;7.28;;
15258;SDS011;34462;51.368;12.364;2023-04-28T12:50:18;8.00;;;7.20;;
15258;SDS011;34462;51.368;12.364;2023-04-28T12:52:46;8.05;;;7.20;;
15258;SDS011;34462;51.368;12.364;2023-04-28T12:55:16;8.27;;;7.47;;
15258;SDS011;34462;51.368;12.364;2023-04-28T12:57:48;8.32;;;7.53;;
15258;SDS011;34462;51.368;12.364;2023-04-28T13:00:16;7.78;;;7.00;;
15258;SDS011;34462;51.368;12.364;2023-04-28T13:02:48;8.43;;;6.90;;
15258;SDS011;34462;51.368;12.364;2023-04-28T13:05:17;7.63;;;6.93;;
15258;SDS011;34462;51.368;12.364;2023-04-28T13:07:45;7.57;;;6.85;;
15258;SDS011;34462;51.368;12.364;2023-04-28T13:10:15;8.98;;;7.75;;
15258;SDS011;34462;51.368;12.364;2023-04-28T13:12:44;8.30;;;7.47;;
15258;SDS011;34462;51.368;12.364;2023-04-28T13:15:13;7.90;;;7.20;;
15258;SDS011;34462;51.368;12.364;2023-04-28T13:17:42;8.93;;;7.03;;
15258;SDS011;34462;51.368;12.364;2023-04-28T13:20:11;7.22;;;6.25;;
15258;SDS011;34462;51.368;12.364;2023-04-28T13:22:39;7.97;;;7.13;;
15258;SDS011;34462;51.368;12.364;2023-04-28T13:25:08;6.47;;;5.88;;
15258;SDS011;34462;51.368;12.364;2023-04-28T13:27:36;7.63;;;6.78;;
15258;SDS011;34462;51.368;12.364;2023-04-28T13:30:08;7.32;;;6.50;;
15258;SDS011;34462;51.368;12.364;2023-04-28T13:32:39;7.75;;;6.65;;
15258;SDS011;34462;51.368;12.364;2023-04-28T13:35:08;7.10;;;6.40;;
15258;SDS011;34462;51.368;12.364;2023-04-28T13:37:39;7.53;;;6.72;;
15258;SDS011;34462;51.368;12.364;2023-04-28T13:40:11;8.93;;;6.85;;
15258;SDS011;34462;51.368;12.364;2023-04-28T13:42:39;8.00;;;7.00;;
15258;SDS011;34462;51.368;12.364;2023-04-28T13:45:07;8.80;;;6.55;;
15258;SDS011;34462;51.368;12.364;2023-04-28T13:47:36;7.35;;;6.65;;
15258;SDS011;34462;51.368;12.364;2023-04-28T13:50:06;8.65;;;6.68;;
15258;SDS011;34462;51.368;12.364;2023-04-28T13:52:35;8.48;;;6.38;;
15258;SDS011;34462;51.368;12.364;2023-04-28T13:55:03;9.00;;;6.78;;
15258;SDS011;34462;51.368;12.364;2023-04-28T13:57:32;7.90;;;5.65;;
15258;SDS011;34462;51.368;12.364;2023-04-28T14:00:00;6.10;;;5.47;;
15258;SDS011;34462;51.368;12.364;2023-04-28T14:02:29;5.47;;;4.97;;
15258;SDS011;34462;51.368;12.364;2023-04-28T14:04:58;5.80;;;5.30;;
15258;SDS011;34462;51.368;12.364;2023-04-28T14:07:28;5.88;;;5.15;;
15258;SDS011;34462;51.368;12.364;2023-04-28T14:09:56;5.40;;;4.82;;
15258;SDS011;34462;51.368;12.364;2023-04-28T14:12:24;5.55;;;4.75;;
15258;SDS011;34462;51.368;12.364;2023-04-28T14:14:52;6.25;;;5.53;;
15258;SDS011;34462;51.368;12.364;2023-04-28T14:17:20;5.85;;;5.20;;
15258;SDS011;34462;51.368;12.364;2023-04-28T14:19:48;5.45;;;4.80;;
15258;SDS011;34462;51.368;12.364;2023-04-28T14:22:16;7.45;;;5.18;;
15258;SDS011;34462;51.368;12.364;2023-04-28T14:24:46;5.88;;;5.28;;
15258;SDS011;34462;51.368;12.364;2023-04-28T14:27:14;5.32;;;4.82;;
15258;SDS011;34462;51.368;12.364;2023-04-28T14:29:42;6.18;;;5.20;;
15258;SDS011;34462;51.368;12.364;2023-04-28T14:32:13;5.50;;;5.00;;
15258;SDS011;34462;51.368;12.364;2023-04-28T14:34:47;5.20;;;4.70;;
15258;SDS011;34462;51.368;12.364;2023-04-28T14:37:17;7.22;;;4.80;;
15258;SDS011;34462;51.368;12.364;2023-04-28T14:39:47;5.72;;;5.03;;
15258;SDS011;34462;51.368;12.364;2023-04-28T14:42:15;5.53;;;4.95;;
15258;SDS011;34462;51.368;12.364;2023-04-28T14:44:43;6.43;;;4.93;;
15258;SDS011;34462;51.368;12.364;2023-04-28T14:47:13;5.28;;;4.78;;
15258;SDS011;34462;51.368;12.364;2023-04-28T14:49:41;5.13;;;4.63;;
15258;SDS011;34462;51.368;12.364;2023-04-28T14:52:09;4.82;;;4.28;;
15258;SDS011;34462;51.368;12.364;2023-04-28T14:54:37;5.00;;;4.50;;